Time;durP1;ratioP1;P1;durP2;ratioP2;P2;SDS_P1;SDS_P2;PMS_P1;PMS_P2;Temp;Humidity;BMP_temperature;BMP_pressure;BME280_temperature;BME280_humidity;BME280_pressure;Samples;Min_cycle;Max_cycle;Signal;HPM_P1;HPM_P2
2022/06/28 00:00:57;;;;;;;7.82;5.25;;;;;;;;;;5045994;28;20028;-68
2022/06/28 00:03:22;;;;;;;9.60;5.65;;;;;;;;;;5049160;28;20622;-68
2022/06/28 00:05:47;;;;;;;5.43;4.63;;;;;;;;;;5043166;28;20029;-68
2022/06/28 00:08:12;;;;;;;8.47;4.90;;;;;;;;;;5043625;28;20021;-68
2022/06/28 00:10:38;;;;;;;11.45;4.90;;;;;;;;;;5046842;28;20293;-68
2022/06/28 00:13:03;;;;;;;10.50;5.40;;;;;;;;;;5041116;28;20212;-68
2022/06/28 00:18:12;;;;;;;9.10;5.40;;;;;;;;;;5043182;28;20104;-69
2022/06/28 00:20:37;;;;;;;5.88;4.65;;;;;;;;;;5045514;28;20092;-68
2022/06/28 00:23:03;;;;;;;6.73;4.50;;;;;;;;;;5038538;28;20615;-69
2022/06/28 00:25:28;;;;;;;5.60;4.47;;;;;;;;;;5026284;28;20292;-68
2022/06/28 00:27:53;;;;;;;7.77;4.20;;;;;;;;;;5043684;28;20025;-68
2022/06/28 00:30:19;;;;;;;8.45;4.38;;;;;;;;;;5046558;28;20372;-68
2022/06/28 00:32:44;;;;;;;12.02;4.75;;;;;;;;;;5040095;28;20018;-68
2022/06/28 00:35:09;;;;;;;7.73;4.90;;;;;;;;;;5036296;28;20037;-68
2022/06/28 00:37:34;;;;;;;12.23;4.88;;;;;;;;;;5040104;28;20275;-68
2022/06/28 00:39:59;;;;;;;5.37;4.03;;;;;;;;;;5040928;28;20119;-69
2022/06/28 00:42:25;;;;;;;11.02;4.70;;;;;;;;;;5036382;28;20280;-68
2022/06/28 00:44:51;;;;;;;6.25;3.70;;;;;;;;;;5040534;28;20017;-68
2022/06/28 00:47:17;;;;;;;9.10;4.70;;;;;;;;;;5037813;28;20651;-68
2022/06/28 00:49:42;;;;;;;9.25;4.00;;;;;;;;;;5048136;28;20040;-68
2022/06/28 00:52:08;;;;;;;7.47;4.78;;;;;;;;;;5043874;28;20020;-68
2022/06/28 00:54:34;;;;;;;8.18;3.70;;;;;;;;;;5043842;28;20023;-68
2022/06/28 00:56:59;;;;;;;7.43;3.95;;;;;;;;;;5041888;28;20032;-68
2022/06/28 01:01:56;;;;;;;12.20;4.68;;;;;;;;;;5077979;28;20459;-66
2022/06/28 01:04:21;;;;;;;11.65;5.10;;;;;;;;;;5077588;28;20020;-66
2022/06/28 01:06:48;;;;;;;6.50;4.72;;;;;;;;;;5079750;28;20062;-66
2022/06/28 01:09:13;;;;;;;8.35;5.05;;;;;;;;;;5083488;28;20562;-65
2022/06/28 01:11:38;;;;;;;8.93;5.50;;;;;;;;;;5058241;28;20518;-64
2022/06/28 01:14:07;;;;;;;14.98;5.72;;;;;;;;;;5050920;28;20267;-65
2022/06/28 01:16:32;;;;;;;9.88;5.65;;;;;;;;;;5066543;28;20518;-65
2022/06/28 01:18:58;;;;;;;12.38;5.93;;;;;;;;;;5067374;28;20115;-65
2022/06/28 01:21:30;;;;;;;10.07;6.57;;;;;;;;;;5055788;28;20021;-65
2022/06/28 01:23:55;;;;;;;10.23;6.18;;;;;;;;;;5057309;28;20274;-66
2022/06/28 01:26:21;;;;;;;9.02;6.20;;;;;;;;;;5059285;28;20067;-65
2022/06/28 01:28:47;;;;;;;13.88;5.55;;;;;;;;;;5061561;28;20017;-65
2022/06/28 01:31:12;;;;;;;9.02;5.47;;;;;;;;;;5056772;28;20024;-65
2022/06/28 01:33:39;;;;;;;8.23;5.72;;;;;;;;;;5069794;28;20472;-65
2022/06/28 01:36:05;;;;;;;13.85;5.95;;;;;;;;;;5059833;28;20020;-65
2022/06/28 01:38:30;;;;;;;10.77;5.47;;;;;;;;;;5061566;28;20031;-65
2022/06/28 01:40:55;;;;;;;17.10;6.25;;;;;;;;;;5056536;28;20388;-66
2022/06/28 01:43:21;;;;;;;12.25;6.07;;;;;;;;;;5059758;28;20385;-66
2022/06/28 01:45:47;;;;;;;11.00;6.90;;;;;;;;;;5068905;28;20481;-66
2022/06/28 01:48:12;;;;;;;12.98;6.10;;;;;;;;;;5066864;28;20016;-66
2022/06/28 01:50:38;;;;;;;9.05;5.78;;;;;;;;;;5059208;28;20028;-66
2022/06/28 01:53:03;;;;;;;9.90;5.68;;;;;;;;;;5063067;28;20103;-65
2022/06/28 01:55:29;;;;;;;9.43;6.32;;;;;;;;;;5068211;28;20023;-65
2022/06/28 01:57:54;;;;;;;9.25;5.90;;;;;;;;;;5056657;28;20021;-65
2022/06/28 02:00:19;;;;;;;11.45;6.15;;;;;;;;;;5060224;28;20051;-65
2022/06/28 02:02:44;;;;;;;10.43;6.05;;;;;;;;;;5056213;28;20029;-65
2022/06/28 02:05:09;;;;;;;8.80;6.87;;;;;;;;;;5060638;28;20040;-66
2022/06/28 02:07:35;;;;;;;12.52;6.20;;;;;;;;;;5068357;28;20306;-66
2022/06/28 02:10:00;;;;;;;9.65;6.07;;;;;;;;;;5062095;28;20108;-66
2022/06/28 02:12:28;;;;;;;8.85;6.00;;;;;;;;;;5064159;28;20457;-65
2022/06/28 02:14:53;;;;;;;7.57;5.68;;;;;;;;;;5056527;28;20020;-65
2022/06/28 02:17:19;;;;;;;11.93;7.45;;;;;;;;;;5062372;28;20386;-65
2022/06/28 02:19:44;;;;;;;14.85;6.35;;;;;;;;;;5057479;28;20016;-65
2022/06/28 02:22:09;;;;;;;8.43;6.25;;;;;;;;;;5058236;28;20070;-66
2022/06/28 02:24:34;;;;;;;17.93;6.67;;;;;;;;;;5057781;28;20012;-64
2022/06/28 02:26:59;;;;;;;10.65;6.57;;;;;;;;;;5064453;28;20302;-65
2022/06/28 02:29:24;;;;;;;10.13;6.47;;;;;;;;;;5058994;28;20528;-65
2022/06/28 02:31:50;;;;;;;19.23;6.53;;;;;;;;;;5054285;28;20333;-65
2022/06/28 02:42:27;;;;;;;15.75;7.18;;;;;;;;;;5062007;28;20030;-65
2022/06/28 02:44:52;;;;;;;14.88;7.97;;;;;;;;;;5063642;28;20025;-65
2022/06/28 02:47:17;;;;;;;11.10;7.73;;;;;;;;;;5056506;28;20021;-66
2022/06/28 02:49:42;;;;;;;16.17;7.77;;;;;;;;;;5060183;28;20365;-65
2022/06/28 02:52:07;;;;;;;14.37;7.93;;;;;;;;;;5068804;28;20282;-66
2022/06/28 02:54:32;;;;;;;22.23;8.97;;;;;;;;;;5067388;28;20740;-66
2022/06/28 02:56:58;;;;;;;14.57;7.83;;;;;;;;;;5067890;28;20281;-66
2022/06/28 02:59:24;;;;;;;10.82;7.82;;;;;;;;;;5063854;28;20283;-66
2022/06/28 03:01:49;;;;;;;12.63;7.75;;;;;;;;;;5056448;28;20025;-66
2022/06/28 03:04:14;;;;;;;16.67;6.83;;;;;;;;;;5054900;28;20100;-66
2022/06/28 03:06:39;;;;;;;13.73;6.47;;;;;;;;;;5059927;28;20878;-66
2022/06/28 03:09:04;;;;;;;13.13;7.07;;;;;;;;;;5057578;28;20453;-66
2022/06/28 03:11:30;;;;;;;12.77;6.32;;;;;;;;;;5056682;28;20274;-66
2022/06/28 03:13:55;;;;;;;15.80;5.82;;;;;;;;;;5068223;28;20017;-66
2022/06/28 03:16:20;;;;;;;10.00;6.13;;;;;;;;;;5056116;28;20017;-66
2022/06/28 03:18:45;;;;;;;12.40;6.22;;;;;;;;;;5059564;28;20847;-65
2022/06/28 03:21:10;;;;;;;15.87;6.27;;;;;;;;;;5053162;28;20393;-66
2022/06/28 03:23:35;;;;;;;10.67;6.03;;;;;;;;;;5068065;28;20344;-65
2022/06/28 03:26:01;;;;;;;10.53;5.73;;;;;;;;;;5065320;28;20298;-65
2022/06/28 03:28:26;;;;;;;9.82;6.78;;;;;;;;;;5062217;28;20285;-64
2022/06/28 03:30:51;;;;;;;10.20;6.57;;;;;;;;;;5055525;28;20021;-66
2022/06/28 03:33:16;;;;;;;16.38;7.95;;;;;;;;;;5065417;28;20775;-65
2022/06/28 03:35:41;;;;;;;13.50;7.63;;;;;;;;;;5067715;28;20500;-66
2022/06/28 03:38:06;;;;;;;16.17;8.40;;;;;;;;;;5063211;28;20431;-66
2022/06/28 03:40:32;;;;;;;16.98;8.18;;;;;;;;;;5058983;28;20623;-66
2022/06/28 03:42:57;;;;;;;18.63;7.30;;;;;;;;;;5061090;28;21212;-65
2022/06/28 03:45:22;;;;;;;14.93;8.00;;;;;;;;;;5058766;28;20285;-66
2022/06/28 03:47:47;;;;;;;17.20;8.70;;;;;;;;;;5066470;28;20600;-66
2022/06/28 03:50:12;;;;;;;14.83;9.47;;;;;;;;;;5056450;28;20114;-65
2022/06/28 03:52:37;;;;;;;15.37;9.53;;;;;;;;;;5064359;28;20776;-64
2022/06/28 03:55:06;;;;;;;17.13;8.57;;;;;;;;;;5069864;28;20278;-65
2022/06/28 03:57:31;;;;;;;18.58;8.88;;;;;;;;;;5061811;28;20259;-65
2022/06/28 03:59:56;;;;;;;12.35;8.02;;;;;;;;;;5059079;28;20020;-66
2022/06/28 04:02:22;;;;;;;17.17;9.30;;;;;;;;;;5063670;28;20491;-66
2022/06/28 04:04:47;;;;;;;16.90;8.57;;;;;;;;;;5064478;28;20021;-65
2022/06/28 04:07:12;;;;;;;15.20;8.27;;;;;;;;;;5070448;28;20028;-65
2022/06/28 04:09:37;;;;;;;17.13;9.02;;;;;;;;;;5057959;28;20275;-65
2022/06/28 04:12:03;;;;;;;20.73;10.45;;;;;;;;;;5060638;28;20016;-65
2022/06/28 04:14:28;;;;;;;18.60;9.98;;;;;;;;;;5066863;28;20047;-65
2022/06/28 04:16:53;;;;;;;14.67;9.03;;;;;;;;;;5068017;28;20024;-66
2022/06/28 04:19:18;;;;;;;25.13;11.00;;;;;;;;;;5062926;28;20271;-65
2022/06/28 04:21:43;;;;;;;18.10;9.60;;;;;;;;;;5059046;28;20325;-65
2022/06/28 04:24:08;;;;;;;17.83;10.57;;;;;;;;;;5059687;28;20281;-65
2022/06/28 04:26:34;;;;;;;13.88;8.88;;;;;;;;;;5062866;28;20275;-65
2022/06/28 04:28:59;;;;;;;16.45;8.55;;;;;;;;;;5062738;28;20253;-66
2022/06/28 04:31:24;;;;;;;17.15;9.55;;;;;;;;;;5062024;28;20047;-65
2022/06/28 04:33:49;;;;;;;19.83;10.20;;;;;;;;;;5068581;28;20020;-65
2022/06/28 04:36:14;;;;;;;15.65;8.60;;;;;;;;;;5069793;28;20079;-65
2022/06/28 04:38:40;;;;;;;16.53;9.60;;;;;;;;;;5065829;28;20024;-65
2022/06/28 04:41:05;;;;;;;15.80;9.57;;;;;;;;;;5059778;28;20321;-66
2022/06/28 04:43:30;;;;;;;18.55;10.23;;;;;;;;;;5067107;28;20339;-64
2022/06/28 04:45:55;;;;;;;22.73;9.07;;;;;;;;;;5069876;28;20028;-65
2022/06/28 04:48:20;;;;;;;15.35;9.18;;;;;;;;;;5068126;28;20271;-65
2022/06/28 04:50:46;;;;;;;16.05;9.38;;;;;;;;;;5055965;28;20013;-65
2022/06/28 04:53:11;;;;;;;16.10;8.63;;;;;;;;;;5060100;28;20219;-64
2022/06/28 04:55:36;;;;;;;30.50;9.85;;;;;;;;;;5055057;28;20733;-65
2022/06/28 04:58:01;;;;;;;16.25;8.90;;;;;;;;;;5056095;28;20234;-65
2022/06/28 05:00:28;;;;;;;15.75;8.88;;;;;;;;;;5057721;28;20025;-65
2022/06/28 05:02:53;;;;;;;16.73;8.40;;;;;;;;;;5062324;28;20020;-65
2022/06/28 05:05:18;;;;;;;14.45;8.20;;;;;;;;;;5066332;28;20035;-65
2022/06/28 05:07:44;;;;;;;15.80;8.50;;;;;;;;;;5062371;28;20020;-65
2022/06/28 05:10:09;;;;;;;15.57;8.63;;;;;;;;;;5061260;28;20775;-65
2022/06/28 05:12:34;;;;;;;18.65;8.73;;;;;;;;;;5061373;28;20269;-65
2022/06/28 05:14:59;;;;;;;16.40;9.30;;;;;;;;;;5069515;28;20027;-65
2022/06/28 05:17:24;;;;;;;16.77;6.60;;;;;;;;;;5066723;28;20020;-65
2022/06/28 05:19:51;;;;;;;15.77;7.10;;;;;;;;;;5061599;28;20306;-65
2022/06/28 05:22:16;;;;;;;11.90;7.35;;;;;;;;;;5060094;28;20612;-65
2022/06/28 05:24:41;;;;;;;11.98;7.18;;;;;;;;;;5067990;28;20023;-65
2022/06/28 05:27:06;;;;;;;10.13;6.10;;;;;;;;;;5064948;28;20028;-65
2022/06/28 05:29:31;;;;;;;12.52;6.10;;;;;;;;;;5068623;28;20278;-66
2022/06/28 05:31:57;;;;;;;12.88;6.75;;;;;;;;;;5064970;28;20019;-66
2022/06/28 05:34:22;;;;;;;8.80;6.30;;;;;;;;;;5060533;28;20376;-66
2022/06/28 05:36:47;;;;;;;8.23;5.68;;;;;;;;;;5058976;28;20027;-66
2022/06/28 05:39:12;;;;;;;10.27;6.00;;;;;;;;;;5055378;28;20086;-65
2022/06/28 05:41:38;;;;;;;11.98;6.20;;;;;;;;;;5061799;28;20794;-66
2022/06/28 05:44:04;;;;;;;8.40;5.00;;;;;;;;;;5056221;28;20457;-65
2022/06/28 05:46:29;;;;;;;10.73;4.75;;;;;;;;;;5062436;28;20477;-65
2022/06/28 05:48:54;;;;;;;8.07;3.78;;;;;;;;;;5056040;28;20438;-65
2022/06/28 05:51:19;;;;;;;9.40;4.70;;;;;;;;;;5051953;28;20170;-65
2022/06/28 05:53:45;;;;;;;7.67;4.90;;;;;;;;;;5055186;28;20533;-64
2022/06/28 05:56:10;;;;;;;10.68;6.45;;;;;;;;;;5052632;28;20270;-65
2022/06/28 05:58:35;;;;;;;12.20;6.90;;;;;;;;;;5060296;28;20021;-65
2022/06/28 06:01:00;;;;;;;13.97;6.40;;;;;;;;;;5062723;28;20282;-65
2022/06/28 06:03:25;;;;;;;15.68;6.63;;;;;;;;;;5060769;28;20278;-65
2022/06/28 06:05:51;;;;;;;10.93;6.72;;;;;;;;;;5054230;28;20024;-65
2022/06/28 06:08:16;;;;;;;11.35;6.30;;;;;;;;;;5056968;28;20017;-65
2022/06/28 06:10:41;;;;;;;13.02;5.03;;;;;;;;;;5059515;28;20024;-65
2022/06/28 06:13:07;;;;;;;11.77;5.40;;;;;;;;;;5058430;28;20097;-65
2022/06/28 06:15:32;;;;;;;8.68;5.47;;;;;;;;;;5057877;28;20758;-65
2022/06/28 06:17:57;;;;;;;9.23;4.90;;;;;;;;;;5060316;28;20032;-66
2022/06/28 06:20:23;;;;;;;9.63;5.43;;;;;;;;;;5052890;28;20267;-66
2022/06/28 06:22:48;;;;;;;10.23;5.75;;;;;;;;;;5058446;28;21130;-66
2022/06/28 06:25:13;;;;;;;11.73;5.07;;;;;;;;;;5060780;28;20043;-65
2022/06/28 06:27:39;;;;;;;6.97;4.15;;;;;;;;;;5056197;28;20446;-65
2022/06/28 06:30:06;;;;;;;8.43;5.20;;;;;;;;;;5059594;28;20085;-65
2022/06/28 06:32:32;;;;;;;9.93;4.78;;;;;;;;;;5057041;28;20020;-65
2022/06/28 06:34:57;;;;;;;10.00;4.70;;;;;;;;;;5057690;28;20480;-65
2022/06/28 06:37:22;;;;;;;13.73;5.37;;;;;;;;;;5062275;28;20274;-65
2022/06/28 06:39:47;;;;;;;9.30;5.47;;;;;;;;;;5057108;28;20755;-65
2022/06/28 06:42:12;;;;;;;6.13;4.00;;;;;;;;;;5060701;28;20328;-65
2022/06/28 06:44:37;;;;;;;13.98;5.38;;;;;;;;;;5053337;28;20688;-66
2022/06/28 06:47:04;;;;;;;8.20;4.93;;;;;;;;;;5052952;28;20503;-66
2022/06/28 06:49:29;;;;;;;8.50;4.82;;;;;;;;;;5060877;28;20700;-66
2022/06/28 06:51:54;;;;;;;6.90;4.10;;;;;;;;;;5057015;28;20044;-66
2022/06/28 06:54:19;;;;;;;10.02;4.03;;;;;;;;;;5053034;28;20108;-66
2022/06/28 06:56:46;;;;;;;10.80;4.33;;;;;;;;;;5054616;28;20472;-66
2022/06/28 06:59:13;;;;;;;10.23;4.30;;;;;;;;;;5056979;28;20675;-66
2022/06/28 07:01:39;;;;;;;12.75;4.43;;;;;;;;;;5097481;23;20466;-68
2022/06/28 07:04:04;;;;;;;6.38;4.25;;;;;;;;;;5084825;28;20036;-69
2022/06/28 07:06:29;;;;;;;6.60;3.40;;;;;;;;;;5080591;28;20029;-68
2022/06/28 07:08:55;;;;;;;8.88;3.92;;;;;;;;;;5079336;28;20270;-68
2022/06/28 07:11:20;;;;;;;7.22;3.13;;;;;;;;;;5064416;28;20100;-68
2022/06/28 07:13:45;;;;;;;11.70;3.53;;;;;;;;;;5060128;28;20017;-68
2022/06/28 07:16:10;;;;;;;9.23;2.72;;;;;;;;;;5061129;28;20336;-68
2022/06/28 07:18:35;;;;;;;8.13;3.08;;;;;;;;;;5060532;28;20500;-68
2022/06/28 07:21:01;;;;;;;7.32;3.03;;;;;;;;;;5069835;28;20017;-68
2022/06/28 07:23:26;;;;;;;10.13;2.67;;;;;;;;;;5071352;28;20309;-68
2022/06/28 07:25:52;;;;;;;4.53;2.45;;;;;;;;;;5069000;28;20024;-68
2022/06/28 07:28:17;;;;;;;4.28;2.45;;;;;;;;;;5059290;28;20595;-68
2022/06/28 07:30:42;;;;;;;13.73;3.47;;;;;;;;;;5071009;28;20473;-68
2022/06/28 07:33:09;;;;;;;14.27;3.05;;;;;;;;;;5062111;28;20270;-68
2022/06/28 07:35:34;;;;;;;6.35;2.50;;;;;;;;;;5059627;28;20397;-67
2022/06/28 07:37:59;;;;;;;6.97;1.98;;;;;;;;;;5061852;28;20029;-68
2022/06/28 07:40:24;;;;;;;10.93;2.57;;;;;;;;;;5068767;28;20021;-68
2022/06/28 07:42:50;;;;;;;5.30;1.90;;;;;;;;;;5066147;28;20762;-68
2022/06/28 07:45:15;;;;;;;3.25;1.65;;;;;;;;;;5067420;28;20105;-69
2022/06/28 07:47:40;;;;;;;5.93;2.00;;;;;;;;;;5064703;28;20091;-69
2022/06/28 07:52:49;;;;;;;11.45;2.25;;;;;;;;;;5065857;28;20059;-69
2022/06/28 07:55:14;;;;;;;7.27;2.20;;;;;;;;;;5059780;28;20057;-67
2022/06/28 07:57:40;;;;;;;6.80;2.40;;;;;;;;;;5065697;28;20859;-67
2022/06/28 08:00:06;;;;;;;5.47;2.27;;;;;;;;;;5061346;28;20822;-67
2022/06/28 08:02:32;;;;;;;6.50;1.98;;;;;;;;;;5065462;28;20504;-67
2022/06/28 08:04:57;;;;;;;4.82;1.77;;;;;;;;;;5060504;28;20300;-66
2022/06/28 08:07:22;;;;;;;6.00;1.83;;;;;;;;;;5070291;28;20032;-66
2022/06/28 08:09:47;;;;;;;5.15;1.65;;;;;;;;;;5065320;28;20373;-66
2022/06/28 08:12:13;;;;;;;11.27;2.83;;;;;;;;;;5056522;28;20104;-67
2022/06/28 08:14:39;;;;;;;6.18;2.38;;;;;;;;;;5065020;28;20464;-66
2022/06/28 08:17:04;;;;;;;5.05;1.70;;;;;;;;;;5064088;28;20492;-66
2022/06/28 08:19:29;;;;;;;3.95;1.30;;;;;;;;;;5047262;28;20105;-66
2022/06/28 08:21:55;;;;;;;7.60;1.80;;;;;;;;;;5066083;28;20032;-66
2022/06/28 08:24:20;;;;;;;8.87;1.70;;;;;;;;;;5061016;28;20021;-67
2022/06/28 08:26:45;;;;;;;4.60;1.88;;;;;;;;;;5063889;28;20109;-66
2022/06/28 08:29:11;;;;;;;4.72;1.20;;;;;;;;;;5053437;28;20252;-66
2022/06/28 08:31:37;;;;;;;3.13;1.08;;;;;;;;;;5059020;28;20105;-66
2022/06/28 08:34:02;;;;;;;5.75;1.13;;;;;;;;;;5058892;28;20059;-66
2022/06/28 08:36:27;;;;;;;3.80;1.40;;;;;;;;;;5059124;28;20032;-66
2022/06/28 08:38:52;;;;;;;6.07;2.45;;;;;;;;;;5055987;28;20384;-66
2022/06/28 08:41:17;;;;;;;3.83;1.58;;;;;;;;;;5060156;28;20021;-69
2022/06/28 08:43:43;;;;;;;2.90;1.30;;;;;;;;;;5058658;28;20056;-66
2022/06/28 08:46:08;;;;;;;6.72;1.23;;;;;;;;;;5061798;28;20025;-66
2022/06/28 08:48:34;;;;;;;7.53;1.50;;;;;;;;;;5062995;28;20044;-66
2022/06/28 08:51:00;;;;;;;5.40;1.33;;;;;;;;;;5063031;28;20028;-66
2022/06/28 08:53:26;;;;;;;3.05;1.35;;;;;;;;;;5051625;28;20017;-66
2022/06/28 08:55:52;;;;;;;7.60;1.60;;;;;;;;;;5063586;28;20016;-68
2022/06/28 08:58:17;;;;;;;8.68;1.20;;;;;;;;;;5062767;28;20020;-68
2022/06/28 09:00:42;;;;;;;2.03;1.00;;;;;;;;;;5061035;28;20051;-67
2022/06/28 09:03:08;;;;;;;4.68;1.42;;;;;;;;;;5063452;28;20056;-67
2022/06/28 09:05:33;;;;;;;4.82;1.10;;;;;;;;;;5068012;28;20031;-67
2022/06/28 09:07:59;;;;;;;4.28;1.30;;;;;;;;;;5059804;28;20024;-67
2022/06/28 09:10:24;;;;;;;4.30;1.10;;;;;;;;;;5068251;28;20031;-67
2022/06/28 09:12:55;;;;;;;5.28;1.30;;;;;;;;;;5063746;28;20100;-67
2022/06/28 09:15:24;;;;;;;8.18;1.10;;;;;;;;;;5051333;28;20040;-68
2022/06/28 09:17:52;;;;;;;4.80;1.45;;;;;;;;;;5051532;28;20013;-68
2022/06/28 09:20:18;;;;;;;5.10;1.17;;;;;;;;;;5068676;28;20027;-68
2022/06/28 09:22:44;;;;;;;6.10;1.80;;;;;;;;;;5071021;28;20931;-66
2022/06/28 09:25:11;;;;;;;7.95;1.30;;;;;;;;;;5058320;28;20469;-66
2022/06/28 09:27:37;;;;;;;6.05;1.60;;;;;;;;;;5058596;28;20021;-66
2022/06/28 09:30:04;;;;;;;6.75;1.85;;;;;;;;;;5060131;28;20025;-66
2022/06/28 09:32:30;;;;;;;5.72;1.35;;;;;;;;;;5067592;28;20029;-67
2022/06/28 09:34:57;;;;;;;4.25;1.30;;;;;;;;;;5066639;28;20027;-67
2022/06/28 09:37:36;;;;;;;5.13;1.10;;;;;;;;;;5060140;28;20024;-69
2022/06/28 09:40:08;;;;;;;5.10;1.20;;;;;;;;;;5067855;28;20382;-67
2022/06/28 09:42:33;;;;;;;3.38;0.75;;;;;;;;;;5056574;28;20024;-66
2022/06/28 09:44:59;;;;;;;4.73;0.90;;;;;;;;;;5060022;28;20025;-66
2022/06/28 09:47:24;;;;;;;4.03;1.08;;;;;;;;;;5067226;28;20285;-69
2022/06/28 09:49:49;;;;;;;5.27;1.00;;;;;;;;;;5063606;28;20024;-66
2022/06/28 09:52:16;;;;;;;5.20;1.17;;;;;;;;;;5061290;28;20785;-66
2022/06/28 09:54:44;;;;;;;5.13;0.80;;;;;;;;;;5060608;28;20278;-67
2022/06/28 09:57:11;;;;;;;4.80;1.17;;;;;;;;;;5059738;28;20024;-67
2022/06/28 09:59:37;;;;;;;4.47;1.10;;;;;;;;;;5060360;28;20021;-67
2022/06/28 10:02:02;;;;;;;3.75;0.77;;;;;;;;;;5062033;28;20039;-67
2022/06/28 10:04:27;;;;;;;2.33;0.80;;;;;;;;;;5060515;28;20024;-69
2022/06/28 10:06:52;;;;;;;4.72;1.63;;;;;;;;;;5063085;28;20020;-67
2022/06/28 10:09:19;;;;;;;1.77;0.90;;;;;;;;;;5062591;28;20031;-67
2022/06/28 10:17:36;;;;;;;6.15;1.27;;;;;;;;;;5059059;28;20051;-67
2022/06/28 10:20:04;;;;;;;3.95;0.80;;;;;;;;;;5061502;28;20035;-66
2022/06/28 10:22:29;;;;;;;4.57;0.93;;;;;;;;;;5060637;28;20070;-67
2022/06/28 10:24:56;;;;;;;2.60;0.90;;;;;;;;;;5056239;28;20086;-67
2022/06/28 10:27:21;;;;;;;4.00;1.60;;;;;;;;;;5057471;28;20285;-69
2022/06/28 10:29:58;;;;;;;3.15;0.90;;;;;;;;;;5059892;28;20095;-67
2022/06/28 10:32:38;;;;;;;4.53;1.50;;;;;;;;;;5061678;28;20020;-67
2022/06/28 10:35:03;;;;;;;2.13;0.82;;;;;;;;;;5060524;28;20017;-67
2022/06/28 10:37:29;;;;;;;3.40;1.00;;;;;;;;;;5060499;28;20034;-67
2022/06/28 10:40:14;;;;;;;3.65;1.08;;;;;;;;;;5059137;28;20150;-67
2022/06/28 10:42:49;;;;;;;3.38;0.88;;;;;;;;;;5059339;28;20044;-67
2022/06/28 10:45:14;;;;;;;4.55;0.95;;;;;;;;;;5058210;28;20028;-67
2022/06/28 10:47:59;;;;;;;3.70;1.20;;;;;;;;;;5059916;28;20043;-67
2022/06/28 10:50:25;;;;;;;3.35;1.05;;;;;;;;;;5061066;28;20481;-67
2022/06/28 10:53:00;;;;;;;2.07;0.83;;;;;;;;;;5059521;28;20096;-67
2022/06/28 10:55:25;;;;;;;8.00;0.88;;;;;;;;;;5058675;28;20318;-67
2022/06/28 10:58:04;;;;;;;3.20;1.02;;;;;;;;;;5059187;28;20048;-67
2022/06/28 11:00:34;;;;;;;3.35;0.70;;;;;;;;;;5063839;28;20136;-68
2022/06/28 11:03:00;;;;;;;5.28;0.70;;;;;;;;;;5061603;28;20052;-68
2022/06/28 11:05:46;;;;;;;5.82;1.10;;;;;;;;;;5059799;28;20469;-67
2022/06/28 11:08:12;;;;;;;3.60;0.52;;;;;;;;;;5060098;28;20042;-67
2022/06/28 11:10:57;;;;;;;3.20;0.85;;;;;;;;;;5060676;28;20549;-67
2022/06/28 11:13:23;;;;;;;3.53;0.63;;;;;;;;;;5061322;28;20024;-67
2022/06/28 11:15:48;;;;;;;5.80;0.90;;;;;;;;;;5061812;28;20027;-68
2022/06/28 11:18:14;;;;;;;5.78;0.70;;;;;;;;;;5061648;28;20446;-67
2022/06/28 11:20:39;;;;;;;2.67;1.08;;;;;;;;;;5059892;28;20035;-67
2022/06/28 11:23:05;;;;;;;1.15;0.60;;;;;;;;;;5062120;28;20025;-67
2022/06/28 11:27:19;;;;;;;3.63;1.00;;;;;;;;;;5059842;28;20488;-68
2022/06/28 11:28:15;;;;;;;3.40;0.85;;;;;;;;;;5057553;28;20028;-71
2022/06/28 11:30:42;;;;;;;2.33;0.75;;;;;;;;;;5057298;28;20013;-68
2022/06/28 11:33:08;;;;;;;3.20;0.82;;;;;;;;;;5062643;28;20013;-68
2022/06/28 11:35:34;;;;;;;4.43;1.00;;;;;;;;;;5059519;28;20016;-69
2022/06/28 11:38:03;;;;;;;3.78;0.75;;;;;;;;;;5056239;28;20021;-69
2022/06/28 11:40:30;;;;;;;2.95;0.70;;;;;;;;;;5056804;28;20017;-68
2022/06/28 11:43:14;;;;;;;1.90;0.70;;;;;;;;;;5058221;28;20035;-68
2022/06/28 11:45:43;;;;;;;2.65;0.90;;;;;;;;;;5058280;28;20642;-68
2022/06/28 11:48:09;;;;;;;8.40;1.00;;;;;;;;;;5056404;28;20029;-69
2022/06/28 11:50:40;;;;;;;3.42;0.85;;;;;;;;;;5042252;28;20274;-69
2022/06/28 11:53:05;;;;;;;7.05;1.10;;;;;;;;;;5058041;28;20491;-69
2022/06/28 11:55:41;;;;;;;4.10;0.85;;;;;;;;;;5057774;28;20021;-70
2022/06/28 11:58:09;;;;;;;2.17;0.55;;;;;;;;;;5065640;28;20016;-67
2022/06/28 12:00:35;;;;;;;2.88;0.47;;;;;;;;;;5062831;28;20021;-68
2022/06/28 12:03:00;;;;;;;6.40;1.40;;;;;;;;;;5062343;28;20020;-67
2022/06/28 12:05:33;;;;;;;3.03;0.90;;;;;;;;;;5066041;28;20071;-69
2022/06/28 12:07:59;;;;;;;4.10;0.68;;;;;;;;;;5062304;28;20377;-67
2022/06/28 12:10:25;;;;;;;5.43;1.27;;;;;;;;;;5062407;28;20024;-67
2022/06/28 12:12:51;;;;;;;1.75;0.50;;;;;;;;;;5062666;28;20063;-67
2022/06/28 12:15:23;;;;;;;1.25;0.63;;;;;;;;;;5061273;28;20472;-67
2022/06/28 12:17:48;;;;;;;7.25;0.80;;;;;;;;;;5062529;28;20028;-67
2022/06/28 12:20:15;;;;;;;4.03;1.05;;;;;;;;;;5063583;28;20031;-67
2022/06/28 12:22:40;;;;;;;3.85;0.47;;;;;;;;;;5059997;28;20028;-67
2022/06/28 12:25:09;;;;;;;4.13;1.00;;;;;;;;;;5059846;28;20024;-67
2022/06/28 12:27:36;;;;;;;5.75;1.02;;;;;;;;;;5061464;28;20282;-67
2022/06/28 12:30:02;;;;;;;4.00;0.85;;;;;;;;;;5062891;28;20094;-67
2022/06/28 12:32:28;;;;;;;6.60;0.90;;;;;;;;;;5061569;28;20028;-67
2022/06/28 12:35:04;;;;;;;2.38;0.80;;;;;;;;;;5062299;28;20020;-67
2022/06/28 12:37:29;;;;;;;4.55;0.73;;;;;;;;;;5064238;28;20077;-67
2022/06/28 12:39:55;;;;;;;13.18;3.17;;;;;;;;;;5062355;28;20028;-67
2022/06/28 12:42:20;;;;;;;2.42;0.98;;;;;;;;;;5061845;28;20085;-69
2022/06/28 12:44:45;;;;;;;3.60;1.00;;;;;;;;;;5063343;28;20048;-67
2022/06/28 12:47:10;;;;;;;5.17;0.60;;;;;;;;;;5063718;28;20024;-67
2022/06/28 12:49:36;;;;;;;3.87;0.90;;;;;;;;;;5062400;28;20024;-67
2022/06/28 12:52:01;;;;;;;1.48;0.40;;;;;;;;;;5062889;28;20025;-67
2022/06/28 12:54:26;;;;;;;5.00;0.67;;;;;;;;;;5061646;28;20584;-67
2022/06/28 12:56:51;;;;;;;3.13;0.80;;;;;;;;;;5060709;28;20013;-67
2022/06/28 12:59:16;;;;;;;3.63;0.70;;;;;;;;;;5060351;28;20040;-67
2022/06/28 13:01:42;;;;;;;3.27;0.67;;;;;;;;;;5059968;28;20286;-68
2022/06/28 13:04:08;;;;;;;10.32;0.90;;;;;;;;;;5061650;28;20008;-67
2022/06/28 13:06:33;;;;;;;1.35;0.50;;;;;;;;;;5058006;28;20028;-68
2022/06/28 13:08:59;;;;;;;6.73;0.90;;;;;;;;;;5061658;28;20024;-68
2022/06/28 13:11:24;;;;;;;8.00;1.40;;;;;;;;;;5062678;28;20267;-69
2022/06/28 13:13:50;;;;;;;4.00;1.08;;;;;;;;;;5062016;28;20297;-69
2022/06/28 13:16:15;;;;;;;1.90;0.70;;;;;;;;;;5060700;28;20377;-69
2022/06/28 13:18:41;;;;;;;4.10;1.35;;;;;;;;;;5060723;28;20031;-69
2022/06/28 13:21:06;;;;;;;2.35;0.68;;;;;;;;;;5062569;28;20035;-69
2022/06/28 13:23:31;;;;;;;4.23;0.70;;;;;;;;;;5061383;28;20027;-69
2022/06/28 13:25:56;;;;;;;3.67;0.70;;;;;;;;;;5062370;28;20495;-69
2022/06/28 13:28:22;;;;;;;6.57;0.90;;;;;;;;;;5062819;28;20093;-69
2022/06/28 13:30:47;;;;;;;5.80;0.47;;;;;;;;;;5058969;28;20039;-69
2022/06/28 13:33:12;;;;;;;2.88;0.93;;;;;;;;;;5061390;28;20029;-69
2022/06/28 13:35:38;;;;;;;3.47;0.90;;;;;;;;;;5060915;28;20020;-69
2022/06/28 13:38:04;;;;;;;3.75;0.63;;;;;;;;;;5064007;28;20266;-69
2022/06/28 13:40:29;;;;;;;3.85;0.75;;;;;;;;;;5067310;28;20024;-69
2022/06/28 13:42:54;;;;;;;3.75;0.90;;;;;;;;;;5061480;28;20111;-69
2022/06/28 13:45:19;;;;;;;2.70;0.75;;;;;;;;;;5059929;28;20065;-71
2022/06/28 13:47:45;;;;;;;6.28;1.45;;;;;;;;;;5061152;28;20381;-69
2022/06/28 13:50:10;;;;;;;3.92;0.75;;;;;;;;;;5060813;28;20016;-69
2022/06/28 13:52:37;;;;;;;3.60;0.80;;;;;;;;;;5044787;28;20052;-69
2022/06/28 13:55:03;;;;;;;3.33;0.40;;;;;;;;;;5061352;28;20016;-69
2022/06/28 13:57:28;;;;;;;5.15;1.30;;;;;;;;;;5060753;28;20017;-69
2022/06/28 13:59:55;;;;;;;1.67;0.80;;;;;;;;;;5058238;28;20401;-69
2022/06/28 14:02:21;;;;;;;4.80;0.80;;;;;;;;;;5061660;28;20271;-69
2022/06/28 14:04:46;;;;;;;5.15;1.08;;;;;;;;;;5061216;28;20492;-69
2022/06/28 14:07:11;;;;;;;9.13;0.90;;;;;;;;;;5060248;28;20023;-69
2022/06/28 14:09:36;;;;;;;5.83;0.77;;;;;;;;;;5059916;28;20017;-69
2022/06/28 14:12:01;;;;;;;2.23;1.10;;;;;;;;;;5061043;28;20103;-69
2022/06/28 14:14:27;;;;;;;4.55;1.08;;;;;;;;;;5061077;28;20415;-69
2022/06/28 14:16:52;;;;;;;1.90;0.70;;;;;;;;;;5060136;28;20028;-69
2022/06/28 14:19:17;;;;;;;2.50;0.60;;;;;;;;;;5062272;28;20306;-69
2022/06/28 14:21:42;;;;;;;1.03;0.70;;;;;;;;;;5042404;28;20279;-69
2022/06/28 14:24:07;;;;;;;0.70;0.50;;;;;;;;;;5060206;28;20809;-69
2022/06/28 14:26:33;;;;;;;1.08;0.60;;;;;;;;;;5060981;28;20020;-69
2022/06/28 14:28:58;;;;;;;3.20;0.95;;;;;;;;;;5061358;28;20052;-69
2022/06/28 14:31:24;;;;;;;2.43;0.80;;;;;;;;;;5058855;28;20016;-69
2022/06/28 14:33:50;;;;;;;3.85;0.80;;;;;;;;;;5060778;28;20286;-69
2022/06/28 14:36:16;;;;;;;5.25;0.65;;;;;;;;;;5061765;28;20028;-69
2022/06/28 14:38:41;;;;;;;3.20;0.73;;;;;;;;;;5061970;28;20017;-69
2022/06/28 14:41:06;;;;;;;1.43;0.70;;;;;;;;;;5059329;28;20637;-69
2022/06/28 14:43:31;;;;;;;6.53;0.97;;;;;;;;;;5061461;28;20059;-69
2022/06/28 14:45:56;;;;;;;4.33;1.07;;;;;;;;;;5057698;28;20032;-69
2022/06/28 14:48:22;;;;;;;2.00;0.70;;;;;;;;;;5057641;28;20282;-69
2022/06/28 14:50:47;;;;;;;0.85;0.50;;;;;;;;;;5062321;28;20751;-69
2022/06/28 14:53:13;;;;;;;1.40;0.60;;;;;;;;;;5060568;28;20036;-69